createdAt,value
2023-01-23T00:02:40.373Z,101388.97
2023-01-23T00:07:43.056Z,101386.94
2023-01-23T00:12:46.707Z,101373.31
2023-01-23T00:17:49.443Z,101370.66
2023-01-23T00:22:52.248Z,101363.34
2023-01-23T00:27:54.944Z,101358.16
2023-01-23T00:32:57.681Z,101352.59
2023-01-23T00:38:02.079Z,101355.66
2023-01-23T00:43:04.846Z,101348.78
2023-01-23T00:48:07.755Z,101346.47
2023-01-23T00:53:10.787Z,101331.75
2023-01-23T00:58:13.707Z,101311.53
2023-01-23T01:03:16.498Z,101321.91
2023-01-23T01:08:19.311Z,101326.13
2023-01-23T01:13:24.054Z,101305.41
2023-01-23T01:18:26.745Z,101309.66
2023-01-23T01:23:29.710Z,101303.38
2023-01-23T01:28:34.046Z,101290.00
2023-01-23T01:33:39.045Z,101275.69
2023-01-23T01:38:42.166Z,101264.97
2023-01-23T01:43:45.326Z,101257.22
2023-01-23T01:49:10.597Z,101258.22
2023-01-23T01:54:23.147Z,101259.59
2023-01-23T01:59:28.032Z,101237.63
2023-01-23T02:04:31.711Z,101259.09
2023-01-23T02:09:35.239Z,101245.94
2023-01-23T02:14:38.022Z,101232.72
2023-01-23T02:19:55.828Z,101218.69
2023-01-23T02:25:15.259Z,101216.91
2023-01-23T02:30:21.301Z,101205.09
2023-01-23T02:35:31.444Z,101201.00
2023-01-23T02:40:43.081Z,101189.59
2023-01-23T02:45:52.494Z,101190.69
2023-01-23T02:50:55.781Z,101182.13
2023-01-23T02:56:00.429Z,101163.75
2023-01-23T03:01:04.011Z,101153.44
2023-01-23T03:06:07.129Z,101164.06
2023-01-23T03:11:09.787Z,101141.06
2023-01-23T03:16:12.763Z,101159.97
2023-01-23T03:21:15.586Z,101151.66
2023-01-23T03:26:18.534Z,101133.75
2023-01-23T03:31:23.052Z,101126.97
2023-01-23T03:36:25.918Z,101117.72
2023-01-23T03:41:29.089Z,101113.63
2023-01-23T03:46:37.199Z,101117.88
2023-01-23T03:51:39.855Z,101105.09
2023-01-23T03:56:43.314Z,101100.97
2023-01-23T04:02:01.680Z,101059.34
2023-01-23T04:07:14.983Z,101109.91
2023-01-23T04:12:19.815Z,101075.41
2023-01-23T04:17:24.517Z,101104.41
2023-01-23T04:22:28.836Z,101113.03
2023-01-23T04:27:32.521Z,101112.91
2023-01-23T04:32:35.483Z,101105.44
2023-01-23T04:37:38.733Z,101101.34
2023-01-23T04:42:43.367Z,101098.97
2023-01-23T04:48:05.360Z,101097.28
2023-01-23T04:53:10.811Z,101091.84
2023-01-23T04:58:14.627Z,101087.50
2023-01-23T05:03:17.606Z,101087.09
2023-01-23T05:08:22.628Z,101077.81
2023-01-23T05:13:37.231Z,101073.25
2023-01-23T05:18:40.733Z,101068.22
2023-01-23T05:23:43.448Z,101046.81
2023-01-23T05:28:48.917Z,101073.78
2023-01-23T05:33:51.678Z,101058.88
2023-01-23T05:38:58.208Z,101040.97
2023-01-23T05:44:04.353Z,101054.47
2023-01-23T05:49:19.719Z,101046.06
2023-01-23T05:54:22.699Z,101051.44
2023-01-23T05:59:27.063Z,101046.38
2023-01-23T06:04:38.807Z,101038.19
2023-01-23T06:10:01.690Z,101028.16
2023-01-23T06:15:09.842Z,101028.38
2023-01-23T06:20:14.504Z,101008.13
2023-01-23T06:25:22.382Z,101016.59
2023-01-23T06:30:27.297Z,101023.53
2023-01-23T06:35:31.671Z,101021.38
2023-01-23T06:40:34.468Z,101017.31
2023-01-23T06:45:59.222Z,101012.03
2023-01-23T06:51:02.305Z,101005.53
2023-01-23T06:56:07.874Z,101011.34
2023-01-23T07:01:18.778Z,101009.75
2023-01-23T07:06:41.784Z,101001.44
2023-01-23T07:11:45.507Z,101006.03
2023-01-23T07:16:48.445Z,101005.34
2023-01-23T07:21:51.904Z,100999.50
2023-01-23T07:26:54.728Z,101006.22
2023-01-23T07:31:59.763Z,101007.44
2023-01-23T07:37:02.613Z,100975.16
2023-01-23T07:42:05.391Z,100998.44
2023-01-23T07:47:08.053Z,100998.44
2023-01-23T07:52:10.889Z,101010.25
2023-01-23T07:57:13.667Z,101019.28
2023-01-23T08:02:16.427Z,101021.19
2023-01-23T08:07:19.472Z,101033.25
2023-01-23T08:12:22.103Z,101024.59
2023-01-23T08:17:24.880Z,101015.56
2023-01-23T08:22:27.574Z,101011.16
2023-01-23T08:27:30.344Z,101007.28
2023-01-23T08:32:35.028Z,101012.75
2023-01-23T08:37:38.394Z,101005.53
2023-01-23T08:42:41.348Z,101010.81
2023-01-23T08:47:44.190Z,101004.09
2023-01-23T08:52:47.086Z,101013.25
2023-01-23T08:57:49.751Z,101006.72
2023-01-23T09:02:52.429Z,101012.59
2023-01-23T09:07:56.127Z,101016.41
2023-01-23T09:12:59.105Z,101017.75
2023-01-23T09:18:03.911Z,101017.00
2023-01-23T09:23:06.672Z,101042.31
2023-01-23T09:28:09.393Z,101035.03
2023-01-23T09:33:12.121Z,101034.97
2023-01-23T09:38:14.796Z,101043.91
2023-01-23T09:43:22.057Z,101033.41
2023-01-23T09:48:39.782Z,101041.63
2023-01-23T09:53:42.910Z,101042.66
2023-01-23T09:59:00.135Z,101016.41
2023-01-23T10:04:03.602Z,101032.63
2023-01-23T10:09:43.779Z,101046.81
2023-01-23T10:15:13.808Z,101049.03
2023-01-23T10:20:43.638Z,101044.03
2023-01-23T10:25:47.223Z,101045.91
2023-01-23T10:30:57.191Z,101043.97
2023-01-23T10:36:05.954Z,101043.09
2023-01-23T10:41:21.761Z,101022.69
2023-01-23T10:46:30.082Z,101021.50
2023-01-23T10:51:47.276Z,101002.44
2023-01-23T10:56:56.070Z,101018.09
2023-01-23T11:02:03.910Z,101018.97
2023-01-23T11:07:25.952Z,101025.91
2023-01-23T11:12:30.980Z,101023.53
2023-01-23T11:17:33.928Z,101014.03
2023-01-23T11:22:42.485Z,101022.94
2023-01-23T11:27:57.785Z,101036.53
2023-01-23T11:33:31.451Z,101032.50
2023-01-23T11:38:51.993Z,101034.34
2023-01-23T11:43:56.069Z,101033.13
2023-01-23T11:49:14.861Z,101033.53
2023-01-23T11:54:56.786Z,101030.41
2023-01-23T12:00:22.251Z,101030.28
2023-01-23T12:05:41.492Z,101029.63
2023-01-23T12:11:20.544Z,101019.22
2023-01-23T12:16:29.513Z,101023.66
2023-01-23T12:21:58.174Z,101023.97
2023-01-23T12:27:07.336Z,101021.16
2023-01-23T12:32:33.172Z,101020.41
2023-01-23T12:37:52.461Z,101023.19
2023-01-23T12:43:08.118Z,101022.28
2023-01-23T12:48:15.232Z,101022.66
2023-01-23T12:53:20.949Z,101011.53
2023-01-23T12:58:27.486Z,101011.19
2023-01-23T13:03:52.213Z,101008.06
2023-01-23T13:09:19.609Z,101003.81
2023-01-23T13:14:31.460Z,100998.88
2023-01-23T13:20:01.125Z,101007.16
2023-01-23T13:25:18.336Z,101010.16
2023-01-23T13:30:27.349Z,101014.97
2023-01-23T13:35:45.252Z,100999.13
2023-01-23T13:41:05.866Z,100996.50
2023-01-23T13:46:27.429Z,100996.19
2023-01-23T14:24:25.408Z,100988.59
2023-01-23T14:29:28.898Z,100983.84
2023-01-23T14:34:39.301Z,100987.78
2023-01-23T14:39:52.996Z,100966.38
2023-01-23T14:44:57.615Z,100981.25
2023-01-23T14:50:01.046Z,100984.25
2023-01-23T14:55:08.066Z,100969.78
2023-01-23T15:00:18.160Z,100971.34
2023-01-23T15:05:27.284Z,100954.22
2023-01-23T15:10:33.007Z,100971.84
2023-01-23T15:15:36.095Z,100976.91
2023-01-23T15:20:43.487Z,100972.16
2023-01-23T15:25:54.537Z,100959.09
2023-01-23T15:31:03.852Z,100969.31
2023-01-23T15:36:09.745Z,100966.69
2023-01-23T15:41:12.624Z,100979.69
2023-01-23T15:46:15.394Z,100965.78
2023-01-23T15:51:18.693Z,100956.81
2023-01-23T15:56:32.820Z,100966.16
2023-01-23T16:01:35.563Z,100969.88
2023-01-23T16:06:39.549Z,100961.44
2023-01-23T16:11:42.075Z,100948.06
2023-01-23T16:16:45.235Z,100954.25
2023-01-23T16:22:03.144Z,100947.38
2023-01-23T16:27:07.400Z,100944.38
2023-01-23T16:32:10.780Z,100932.78
2023-01-23T16:37:16.259Z,100941.97
2023-01-23T16:42:23.679Z,100946.19
2023-01-23T16:47:26.360Z,100946.03
2023-01-23T16:52:29.201Z,100946.91
2023-01-23T16:57:32.150Z,100951.66
2023-01-23T17:02:35.345Z,100948.50
2023-01-23T17:07:38.098Z,100946.56
2023-01-23T17:12:40.799Z,100949.38
2023-01-23T17:17:45.695Z,100929.44
2023-01-23T17:22:48.646Z,100942.00
2023-01-23T17:28:10.822Z,100940.75
2023-01-23T17:33:24.865Z,100924.22
2023-01-23T17:38:31.348Z,100918.22
2023-01-23T17:43:33.995Z,100918.03
2023-01-23T17:48:41.114Z,100921.38
2023-01-23T17:53:44.658Z,100916.25
2023-01-23T17:58:47.483Z,100911.84
2023-01-23T18:03:54.087Z,100901.81
2023-01-23T18:08:56.831Z,100909.56
2023-01-23T18:14:11.313Z,100915.38
2023-01-23T18:19:40.278Z,100909.03
2023-01-23T18:24:43.223Z,100900.38
2023-01-23T18:30:04.316Z,100889.81
2023-01-23T18:35:22.709Z,100891.56
2023-01-23T18:41:06.941Z,100897.22
2023-01-23T18:46:21.466Z,100892.97
2023-01-23T18:51:40.216Z,100885.75
2023-01-23T18:56:52.954Z,100876.94
2023-01-23T19:02:01.443Z,100898.81
2023-01-23T19:07:15.458Z,100888.06
2023-01-23T19:12:38.533Z,100878.19
2023-01-23T19:17:51.878Z,100880.81
2023-01-23T19:23:02.645Z,100875.88
2023-01-23T19:28:05.857Z,100875.00
2023-01-23T19:33:15.089Z,100880.81
2023-01-23T19:38:18.149Z,100865.66
2023-01-23T19:43:21.084Z,100864.78
2023-01-23T19:48:23.925Z,100858.44
2023-01-23T19:53:26.690Z,100856.13
2023-01-23T19:58:30.934Z,100855.78
2023-01-23T20:03:36.011Z,100856.31
2023-01-23T20:08:38.747Z,100851.00
2023-01-23T20:13:42.482Z,100847.69
2023-01-23T20:18:48.385Z,100835.84
2023-01-23T20:23:51.213Z,100836.06
2023-01-23T20:28:54.068Z,100831.66
2023-01-23T20:33:56.770Z,100829.72
2023-01-23T20:38:59.430Z,100825.97
2023-01-23T20:44:02.192Z,100823.88
2023-01-23T20:49:04.913Z,100820.34
2023-01-23T20:54:07.611Z,100825.28
2023-01-23T20:59:19.487Z,100804.31
2023-01-23T21:04:24.053Z,100796.56
2023-01-23T21:09:27.467Z,100802.00
2023-01-23T21:14:30.760Z,100793.38
2023-01-23T21:19:34.007Z,100793.38
2023-01-23T21:24:37.233Z,100759.72
2023-01-23T21:29:40.198Z,100781.91
2023-01-23T21:34:43.061Z,100786.50
2023-01-23T21:39:45.781Z,100781.72
2023-01-23T21:44:52.623Z,100784.38
2023-01-23T21:49:55.328Z,100778.03
2023-01-23T21:54:58.059Z,100764.09
2023-01-23T22:00:19.631Z,100774.66
2023-01-23T22:05:22.745Z,100777.81
2023-01-23T22:10:25.752Z,100779.91
2023-01-23T22:15:28.542Z,100767.91
2023-01-23T22:20:31.215Z,100758.03
2023-01-23T22:25:33.883Z,100751.81
2023-01-23T22:30:36.742Z,100752.88
2023-01-23T22:35:42.891Z,100735.03
2023-01-23T22:40:46.523Z,100741.22
2023-01-23T22:45:49.238Z,100722.88
2023-01-23T22:50:51.845Z,100727.63
2023-01-23T22:55:54.519Z,100732.56
2023-01-23T23:00:57.516Z,100708.41
2023-01-23T23:06:05.984Z,100722.13
2023-01-23T23:11:17.253Z,100718.75
2023-01-23T23:16:22.750Z,100708.88
2023-01-23T23:21:31.966Z,100676.13
2023-01-23T23:26:35.014Z,100676.56
2023-01-23T23:31:38.034Z,100689.59
2023-01-23T23:36:40.940Z,100680.97
2023-01-23T23:41:43.658Z,100681.81
2023-01-23T23:46:46.249Z,100675.28
2023-01-23T23:51:48.950Z,100683.06
2023-01-23T23:56:51.844Z,100662.06
